• Join FlightAware (Why Join?)
  • Login
  • US Flag 
03:10PM EDT


 

Airport Tracker/Info


-or-


 

Live Flight TrackerFlight Track Log ✈ EGF4325 ✈ 12-May-2013 ✈ KORD - KLIT

Flight Track Log - Related Links

Times and Time Zones

All times are in EDT time to prevent confusion due to time zone crossing. See the EGF4325 flight status page for this flight to view local times or setup timezone preferences in your user account.

Time Position Orientation Groundspeed Altitude Reporting Facility
EDT Latitude Longitude Course Direction KTS MPH feet Rate Location/Type
01:46PM 41.9000 -87.9167 197° South 210 242 3,100  Level Chicago TRACON
01:47PM 41.8711 -87.9281 196° South 208 239 4,500 2,040 Climbing Chicago Center
01:48PM 41.7031 -88.0918 189° South  Level Estimated
01:48PM 41.8069 -87.9486 193° South 222 255 6,400  Level Chicago Center
01:49PM 41.6101 -88.1531 189° South  Level Estimated
01:49PM 41.7292 -87.9653 189° South 272 313 8,800  Level Chicago Center
01:50PM 41.5185 -88.0884 152° Southeast  Level FlightAware Approximate
01:50PM 41.6303 -87.9850 188° South 300 345 11,100  Level Chicago Center
01:51PM 41.4309 -88.1477 197° South  Level Estimated
01:51PM 41.5414 -88.0028 189° South 319 367 13,000  Level Chicago Center
01:52PM 41.4472 -88.0219 189° South 335 386 14,500 1,500 Climbing Chicago Center
01:53PM 41.3450 -88.0508 192° South 351 404 16,200 1,500 Climbing Chicago Center
01:54PM 41.2467 -88.0850 195° South 361 415 17,700 1,380 Climbing Chicago Center
01:55PM 41.1450 -88.1139 192° South 372 428 19,100 1,380 Climbing Chicago Center
01:56PM 41.0419 -88.1433 192° South 380 437 20,600 1,440 Climbing Chicago Center
01:57PM 40.9375 -88.1733 192° South 385 443 22,100 1,440 Climbing Chicago Center
01:58PM 40.8319 -88.2033 192° South 388 447 23,600 1,620 Climbing Chicago Center
01:59PM 40.7036 -88.2397 192° South 393 452 25,500 1,620 Climbing Chicago Center
02:00PM 40.5992 -88.2717 193° South 389 448 27,000 1,440 Climbing Chicago Center
02:01PM 40.5111 -88.3411 211° Southwest 368 423 28,500 1,440 Climbing Chicago Center
02:02PM 40.4231 -88.4061 209° Southwest 364 419 30,000 1,440 Climbing Chicago Center
02:03PM 40.3358 -88.4694 209° Southwest 362 417 31,500 1,560 Climbing Chicago Center
02:04PM 40.2381 -88.5417 209° Southwest 361 415 33,200 1,200 Climbing Chicago Center
02:05PM 40.1503 -88.6053 209° Southwest 358 412 34,000 360 Climbing Chicago Center
02:06PM 40.0758 -88.6600 209° Southwest 367 422 34,000  Level Kansas City Center
02:07PM 39.9592 -88.7425 208° Southwest 389 448 34,000  Level Kansas City Center
02:08PM 39.8581 -88.8161 209° Southwest 407 468 34,000  Level Kansas City Center
02:09PM 39.7561 -88.8883 209° Southwest 415 478 34,000  Level Kansas City Center
02:10PM 39.6556 -88.9614 209° Southwest 414 476 34,000  Level Kansas City Center
02:11PM 39.5572 -89.0317 209° Southwest 406 467 34,000  Level Kansas City Center
02:12PM 39.4581 -89.1014 209° Southwest 405 466 34,000  Level Kansas City Center
02:13PM 39.3492 -89.1778 208° Southwest 407 468 34,000  Level Kansas City Center
02:14PM 39.2494 -89.2489 209° Southwest 408 470 34,000  Level Kansas City Center
02:15PM 39.1400 -89.3261 209° Southwest 407 468 34,000  Level Kansas City Center
02:16PM 39.0328 -89.4025 209° Southwest 408 470 34,000  Level Kansas City Center
02:17PM 38.9353 -89.4708 209° Southwest 401 461 34,000  Level Kansas City Center
02:18PM 38.8386 -89.5386 209° Southwest 395 455 34,000  Level Kansas City Center
02:19PM 38.7356 -89.6097 208° Southwest 391 450 34,000  Level Kansas City Center
02:20PM 38.6436 -89.6733 208° Southwest 393 452 34,000  Level Kansas City Center
02:22PM 38.5444 -89.7397 208° Southwest 397 457 34,000  Level Kansas City Center
02:23PM 38.4464 -89.8081 209° Southwest 399 459 34,000  Level Kansas City Center
02:24PM 38.3489 -89.8767 209° Southwest 399 459 34,000  Level Kansas City Center
02:25PM 38.2483 -89.9436 208° Southwest 404 465 34,000  Level Kansas City Center
02:26PM 38.1486 -90.0114 208° Southwest 405 466 34,000  Level Kansas City Center
02:27PM 38.0303 -90.0911 208° Southwest 402 463 34,000  Level Kansas City Center
02:28PM 37.9325 -90.1572 208° Southwest 398 458 34,000  Level Kansas City Center
02:29PM 37.8364 -90.2247 209° Southwest 396 456 34,000  Level Kansas City Center
02:30PM 37.7406 -90.2908 209° Southwest 393 452 34,000  Level Kansas City Center
02:31PM 37.6467 -90.3533 208° Southwest 386 444 34,000  Level Kansas City Center
02:32PM 37.5525 -90.4158 208° Southwest 384 442 34,000  Level Kansas City Center
02:33PM 37.4597 -90.4789 208° Southwest 381 438 34,000  Level Kansas City Center
02:34PM 37.3492 -90.5531 208° Southwest 378 435 34,000  Level Kansas City Center
02:34PM 37.2942 -90.5864 206° Southwest 382 440 34,000  Level Memphis Center
02:35PM 37.2086 -90.6458 209° Southwest 391 450 34,000  Level Memphis Center
02:36PM 37.1147 -90.7106 209° Southwest 391 450 34,000  Level Memphis Center
02:37PM 37.0103 -90.7803 208° Southwest 391 450 34,000  Level Memphis Center
02:38PM 36.9247 -90.8317 206° Southwest 391 450 34,000  Level Memphis Center
02:39PM 36.8267 -90.8986 209° Southwest 391 450 34,000  Level Memphis Center
02:40PM 36.7306 -90.9603 207° Southwest 391 450 34,000  Level Memphis Center
02:41PM 36.6342 -91.0214 207° Southwest 391 450 34,000  Level Memphis Center
02:42PM 36.5339 -91.0853 207° Southwest 391 450 34,000  Level Memphis Center
02:43PM 36.4397 -91.1489 209° Southwest 391 450 34,000  Level Memphis Center
02:44PM 36.3414 -91.2097 206° Southwest 396 456 34,000  Level Memphis Center
02:45PM 36.2450 -91.2706 207° Southwest 396 456 34,000  Level Memphis Center
02:46PM 36.1506 -91.3336 208° Southwest 391 450 34,000 -960 Level Memphis Center
02:47PM 36.0522 -91.3967 207° Southwest 396 456 32,100 -2,100 Descending Memphis Center
02:48PM 35.9431 -91.4647 207° Southwest 396 456 29,900 -2,520 Descending Memphis Center
02:49PM 35.8444 -91.5300 208° Southwest 396 456 27,100 -2,760 Descending Memphis Center
02:50PM 35.7458 -91.5925 207° Southwest 401 461 24,400 -1,800 Descending Memphis Center
02:51PM 35.6514 -91.6522 207° Southwest 395 455 23,600 -1,800 Descending Memphis Center
02:52PM 35.5633 -91.7044 206° Southwest 378 435 20,800 -2,640 Descending Memphis Center
02:53PM 35.5192 -91.7344 209° Southwest 346 398 19,600 -2,520 Descending Memphis Center
02:53PM 35.4772 -91.7619 208° Southwest 366 421 18,300 -2,460 Descending Memphis Center
02:54PM 35.3806 -91.8239 208° Southwest 366 421 16,000 -2,340 Descending Memphis Center
02:55PM 35.2797 -91.8806 205° Southwest 388 447 13,700 -2,220 Descending Memphis Center
02:57PM 35.1747 -91.9422 206° Southwest 346 398 11,300 -1,740 Descending Memphis Center
02:57PM 35.1094 -91.9767 203° Southwest 352 405 10,300 -1,260 Descending Memphis Center
02:58PM 35.0886 -91.9889 206° Southwest 307 353 9,900 -1,920 Descending Memphis Center
02:58PM 35.0339 -92.0208 206° Southwest 324 373 8,400 -2,040 Descending Memphis Center
02:59PM 35.0086 -92.0356 206° Southwest 297 342 7,900 -1,800 Descending Memphis Center
02:59PM 34.9581 -92.0650 206° Southwest 308 354 6,600 -1,620 Descending Memphis Center
03:00PM 34.9267 -92.0819 204° Southwest 295 339 6,100 -1,320 Descending Memphis Center
03:00PM 34.8847 -92.1039 203° Southwest 302 348 5,300 -1,200 Descending Memphis Center
03:01PM 34.8656 -92.1161 208° Southwest 269 310 5,000 -1,020 Descending Memphis Center